Terminal Aerodrome Forecast
Issued by NWS Tulsa, OK

Current Version | Previous Version | Text Only | Print | Product List | Glossary On
Versions: 1 2 3 4 5 6 7 8 9 10 11 12 13 14 15 16 17 18 19 20 21 22
000
FTUS44 KTSA 191100
TAFFSM
TAF
KFSM 191133Z 1912/2012 26009KT P6SM BKN100
     FM192000 07004KT P6SM VCTS BKN050CB
      TEMPO 1921/2001 2SM -TSRA BR BKN025CB
     FM200200 29012G22KT P6SM BKN050
     FM200900 32010G17KT P6SM SKC=

USA.gov is the U.S. government's official web portal to all federal, state and local government web resources and services.